Map

Track Data

SID SEASON NUMBER BASIN SUBBASIN NAME ISO_TIME NATURE LAT LON WMO_WIND WMO_PRES WMO_AGENCY TRACK_TYPE DIST2LAND LANDFALL IFLAG USA_AGENCY USA_ATCF_ID USA_LAT USA_LON USA_RECORD USA_STATUS USA_WIND USA_PRES USA_SSHS USA_R34_NE USA_R34_SE USA_R34_SW USA_R34_NW USA_R50_NE USA_R50_SE USA_R50_SW USA_R50_NW USA_R64_NE USA_R64_SE USA_R64_SW USA_R64_NW USA_POCI USA_ROCI USA_RMW USA_EYE TOKYO_LAT TOKYO_LON TOKYO_GRADE TOKYO_WIND TOKYO_PRES TOKYO_R50_DIR TOKYO_R50_LONG TOKYO_R50_SHORT TOKYO_R30_DIR TOKYO_R30_LONG TOKYO_R30_SHORT TOKYO_LAND CMA_LAT CMA_LON CMA_CAT CMA_WIND CMA_PRES HKO_LAT HKO_LON HKO_CAT HKO_WIND HKO_PRES NEWDELHI_LAT NEWDELHI_LON NEWDELHI_GRADE NEWDELHI_WIND NEWDELHI_PRES NEWDELHI_CI NEWDELHI_DP NEWDELHI_POCI REUNION_LAT REUNION_LON REUNION_TYPE REUNION_WIND REUNION_PRES REUNION_TNUM REUNION_CI REUNION_RMW REUNION_R34_NE REUNION_R34_SE REUNION_R34_SW REUNION_R34_NW REUNION_R50_NE REUNION_R50_SE REUNION_R50_SW REUNION_R50_NW REUNION_R64_NE REUNION_R64_SE REUNION_R64_SW REUNION_R64_NW BOM_LAT BOM_LON BOM_TYPE BOM_WIND BOM_PRES BOM_TNUM BOM_CI BOM_RMW BOM_R34_NE BOM_R34_SE BOM_R34_SW BOM_R34_NW BOM_R50_NE BOM_R50_SE BOM_R50_SW BOM_R50_NW BOM_R64_NE BOM_R64_SE BOM_R64_SW BOM_R64_NW BOM_ROCI BOM_POCI BOM_EYE BOM_POS_METHOD BOM_PRES_METHOD NADI_LAT NADI_LON NADI_CAT NADI_WIND NADI_PRES WELLINGTON_LAT WELLINGTON_LON WELLINGTON_WIND WELLINGTON_PRES DS824_LAT DS824_LON DS824_STAGE DS824_WIND DS824_PRES TD9636_LAT TD9636_LON TD9636_STAGE TD9636_WIND TD9636_PRES TD9635_LAT TD9635_LON TD9635_WIND TD9635_PRES TD9635_ROCI NEUMANN_LAT NEUMANN_LON NEUMANN_CLASS NEUMANN_WIND NEUMANN_PRES MLC_LAT MLC_LON MLC_CLASS MLC_WIND MLC_PRES USA_GUST BOM_GUST BOM_GUST_PER REUNION_GUST REUNION_GUST_PER USA_SEAHGT USA_SEARAD_NE USA_SEARAD_SE USA_SEARAD_SW USA_SEARAD_NW STORM_SPEED STORM_DIR
1968222N19139 1968 62 WP MM NOT_NAMED 1968-08-09 00:00:00 TS 19.4000 139.000 main 1540 1511 __O___________ -1 19.4000 139.000 1 23 1002 6 354
1968222N19139 1968 62 WP MM NOT_NAMED 1968-08-09 03:00:00 TS 19.7075 138.963 main 1511 1482 __P___________ -1 19.7075 138.963 1 23 1000 6 1
1968222N19139 1968 62 WP MM NOT_NAMED 1968-08-09 06:00:00 TS 20.0000 139.000 main 1482 1463 __O___________ -1 20.0000 139.000 1 23 999 6 19
1968222N19139 1968 62 WP MM NOT_NAMED 1968-08-09 09:00:00 TS 20.2650 139.162 main 1463 1449 __P___________ -1 20.2650 139.162 1 1000 6 37
1968222N19139 1968 62 WP MM NOT_NAMED 1968-08-09 12:00:00 TS 20.5000 139.400 main 1455 1447 __O___________ -1 20.5000 139.400 0 1002 6 47
1968222N19139 1968 62 WP MM NOT_NAMED 1968-08-09 15:00:00 TS 20.6623 139.613 main 1447 1443 __P___________ -1 20.6623 139.613 0 1002 6 49
1968222N19139 1968 62 WP MM NOT_NAMED 1968-08-09 18:00:00 TS 20.9000 139.900 main 1445 1421 __O___________ -1 20.9000 139.900 0 1002 9 46
1968222N19139 1968 62 WP MM NOT_NAMED 1968-08-09 21:00:00 TS 21.3177 140.328 main 1421 1374 __P___________ -1 21.3177 140.328 0 1002 13 40
1968222N19139 1968 62 WP MM NOT_NAMED 1968-08-10 00:00:00 TS 21.9000 140.800 main 1374 1316 __O___________ -1 21.9000 140.800 0 1002 15 33
1968222N19139 1968 62 WP MM NOT_NAMED 1968-08-10 03:00:00 TS 22.6051 141.237 main 1316 1251 __P___________ -1 22.6051 141.237 0 1002 17 26
1968222N19139 1968 62 WP MM NOT_NAMED 1968-08-10 06:00:00 TS 23.4000 141.600 main 1251 1180 __O___________ -1 23.4000 141.600 0 1002 17 20
1968222N19139 1968 62 WP MM NOT_NAMED 1968-08-10 09:00:00 TS 24.1999 141.860 main 1185 1113 __P___________ -1 24.1999 141.860 0 1002 16 13
1968222N19139 1968 62 WP MM NOT_NAMED 1968-08-10 12:00:00 TS 25.0000 142.000 main 1113 1039 __O___________ -1 25.0000 142.000 0 1002 15 6
1968222N19139 1968 62 WP MM NOT_NAMED 1968-08-10 15:00:00 TS 25.7275 142.031 main 1039 954 __P___________ -1 25.7275 142.031 0 1002 15 0
1968222N19139 1968 62 WP MM NOT_NAMED 1968-08-10 18:00:00 TS 26.5000 142.000 main 954 858 __O___________ -1 26.5000 142.000 0 1002 17 359
1968222N19139 1968 62 WP MM NOT_NAMED 1968-08-10 21:00:00 TS 27.4425 141.993 main 858 762 __P___________ -1 27.4425 141.993 0 1002 19 0
1968222N19139 1968 62 WP MM NOT_NAMED 1968-08-11 00:00:00 TS 28.4000 142.000 main 751 665 __O___________ -1 28.4000 142.000 0 1002 18 1
1968222N19139 1968 62 WP MM NOT_NAMED 1968-08-11 03:00:00 TS 29.2299 142.028 main 665 583 __P___________ -1 29.2299 142.028 0 1003 16 3
1968222N19139 1968 62 WP MM NOT_NAMED 1968-08-11 06:00:00 TS 30.0000 142.100 main 583 515 __O___________ -1 30.0000 142.100 0 1004 15 6
1968222N19139 1968 62 WP MM NOT_NAMED 1968-08-11 09:00:00 TS 30.7574 142.213 main 504 444 __P___________ -1 30.7574 142.213 0 1005 15 10
1968222N19139 1968 62 WP MM NOT_NAMED 1968-08-11 12:00:00 TS 31.5000 142.400 main 444 391 __O___________ -1 31.5000 142.400 0 1006 15 14
1968222N19139 1968 62 WP MM NOT_NAMED 1968-08-11 15:00:00 TS 32.2123 142.649 main 391 342 __P___________ -1 32.2123 142.649 0 1006 16 19
1968222N19139 1968 62 WP MM NOT_NAMED 1968-08-11 18:00:00 TS 33.0000 143.000 main 342 303 __O___________ -1 33.0000 143.000 0 1006 19 21
1968222N19139 1968 62 WP MM NOT_NAMED 1968-08-11 21:00:00 TS 33.9506 143.464 main 303 285 __P___________ -1 33.9506 143.464 0 1006 22 23
1968222N19139 1968 62 WP MM NOT_NAMED 1968-08-12 00:00:00 TS 35.0000 144.000 main 291 __O___________ -1 35.0000 144.000 0 1006 23 23

Digital Typhoon Data and Search

About IBTrACS Database

This database is a web-friendly format of International Best Track Archive for Climate Stewardship (IBTrACS), a global best track data archive curated by NOAA dating back to 1842.

Updated: 2021-12-03